Date,TemperatureHighF,TemperatureAvgF,TemperatureLowF,DewpointHighF,DewpointAvgF,DewpointLowF,HumidityHigh,HumidityAvg,HumidityLow,PressureMaxIn,PressureMinIn,WindSpeedMaxMPH,WindSpeedAvgMPH,GustSpeedMaxMPH,PrecipitationSumIn
2013-1-1,39,18,2,28,10,-1,86,73,50,29.98,29.86,10,2,10,0.00
2013-1-2,41,26,6,29,17,-1,86,69,53,30.07,29.86,15,5,15,0.00
2013-1-3,44,23,10,26,12,-1,79,63,41,30.15,30.01,12,3,12,0.00
2013-1-4,49,21,6,25,7,-4,69,56,38,30.03,29.89,9,2,9,0.00
2013-1-5,51,26,13,27,14,4,72,61,39,30.07,29.86,20,5,20,0.00
2013-1-6,53,27,9,27,15,3,77,63,37,30.09,29.74,12,3,12,0.00
2013-1-7,51,28,16,31,16,10,80,64,37,29.83,29.71,9,2,9,0.00
2013-1-8,58,28,13,36,18,6,78,66,39,30.07,29.62,11,2,11,0.00
2013-1-9,60,35,17,33,22,12,82,64,34,30.15,29.98,14,3,14,0.00
2013-1-10,42,34,26,34,29,20,97,80,68,30.03,29.39,13,4,13,0.00
2013-1-11,38,29,12,36,27,7,98,92,82,29.74,29.21,19,5,19,0.00
2013-1-12,22,10,2,9,1,-11,82,66,46,30.03,29.74,17,6,17,0.00
2013-1-13,28,8,-3,10,-6,-15,67,52,44,30.18,30.03,13,3,13,0.00
2013-1-14,33,13,-4,16,0,-17,77,55,44,30.30,29.98,11,2,11,0.00
2013-1-15,39,19,-2,17,7,-9,76,61,40,30.03,29.80,13,3,13,0.00
2013-1-16,53,36,26,31,22,16,72,58,36,30.12,29.80,17,5,17,0.00
2013-1-17,64,35,20,34,20,14,77,57,30,30.30,30.03,10,2,10,0.00
2013-1-18,67,38,21,33,18,11,72,49,24,30.03,29.77,12,3,13,0.00
2013-1-19,64,40,26,33,18,13,61,44,25,30.12,29.74,15,4,15,0.00
2013-1-20,44,26,18,28,15,6,77,62,47,30.18,29.98,15,3,15,0.00
2013-1-21,35,21,10,16,9,1,74,60,44,30.21,29.92,10,3,10,0.00
2013-1-22,53,26,16,29,15,11,80,64,39,30.01,29.89,13,3,13,0.00
2013-1-23,43,25,14,24,13,5,78,61,42,30.21,29.89,11,3,11,0.00
2013-1-24,31,18,7,16,7,-3,71,62,51,30.21,29.77,17,4,17,0.00
2013-1-25,65,36,0,34,20,13,79,56,27,30.03,29.89,9,2,11,0.00
2013-1-26,61,41,24,33,23,15,74,52,31,29.92,29.65,14,3,14,0.00
2013-1-27,57,40,29,55,38,27,98,94,56,29.68,29.47,8,1,8,0.21
2013-1-28,43,33,26,42,32,25,98,98,97,29.62,29.44,15,2,15,0.00
2013-1-29,36,30,25,36,29,24,98,96,91,29.68,29.56,17,5,17,0.04
2013-1-30,42,25,12,27,16,7,98,70,46,29.86,29.65,21,6,21,0.00
2013-1-31,23,19,14,15,6,-1,76,57,43,30.18,29.71,18,5,18,0.00
2013-2-1,58,35,15,33,20,3,75,57,36,30.12,29.89,12,3,12,0.00
2013-2-2,59,39,27,34,23,16,83,57,27,30.12,30.01,26,6,26,0.00
2013-2-3,59,36,18,32,19,12,79,54,29,30.07,29.74,12,2,12,0.00
2013-2-4,64,40,23,33,20,12,73,48,26,29.89,29.65,13,3,13,0.00
2013-2-5,67,42,25,35,21,13,67,46,26,29.83,29.65,10,3,10,0.00
2013-2-6,67,45,34,36,25,20,60,46,30,29.83,29.68,13,3,13,0.00
2013-2-7,65,40,24,35,20,8,78,49,25,30.09,29.83,8,3,8,0.00
2013-2-8,58,38,21,30,20,10,77,51,30,30.01,29.77,32,7,32,0.00
2013-2-9,58,40,23,41,26,18,98,63,29,29.80,29.24,17,6,17,0.21
2013-2-10,40,30,24,39,28,20,98,92,80,29.92,29.21,32,11,32,0.12
2013-2-11,46,25,13,36,17,9,87,73,45,30.07,29.92,17,5,17,0.00
2013-2-12,49,27,13,24,15,8,83,62,38,29.95,29.86,15,3,15,0.04
2013-2-13,54,36,22,29,21,14,72,56,36,29.89,29.68,17,6,17,0.00
2013-2-14,41,32,23,28,20,14,80,64,42,30.21,29.80,25,6,25,0.00
2013-2-15,38,24,15,22,11,4,77,60,39,30.21,30.07,16,4,16,0.00
2013-2-16,60,37,17,32,21,7,73,54,33,30.09,29.80,20,4,20,0.00
2013-2-17,58,38,20,35,22,15,81,57,30,29.83,29.42,18,2,18,0.00
2013-2-18,43,34,22,25,18,10,66,52,37,30.03,29.53,28,10,28,0.00
2013-2-19,46,27,15,22,10,0,66,50,36,30.12,29.95,15,5,15,0.00
2013-2-20,24,18,11,19,7,-5,91,63,44,30.12,29.83,18,7,18,0.00
2013-2-21,23,18,13,16,13,8,93,84,73,29.95,29.77,16,5,16,0.00
2013-2-22,43,18,3,36,14,-2,97,82,59,29.95,29.71,10,2,10,0.00
2013-2-23,53,23,1,45,19,0,96,87,64,29.80,29.50,8,1,8,0.00
2013-2-24,39,29,16,30,23,14,96,79,56,29.92,29.65,13,3,13,0.04
2013-2-25,47,32,16,28,22,10,88,71,44,29.98,29.80,10,3,10,0.00
2013-2-26,48,26,7,27,14,3,82,63,37,29.92,29.74,7,2,7,0.00
2013-2-27,36,31,24,27,21,17,77,67,56,30.07,29.89,19,7,22,0.00
2013-2-28,55,32,19,31,20,14,83,65,38,30.12,30.01,8,2,8,0.00
2013-3-1,48,33,24,36,24,19,86,70,45,30.15,30.03,13,3,13,0.00
2013-3-2,68,42,22,42,29,17,86,63,34,30.15,29.86,14,2,14,0.00
2013-3-3,70,48,30,46,31,25,85,57,30,29.86,29.44,13,2,13,0.00
2013-3-4,55,38,23,31,18,4,74,48,28,30.09,29.44,25,8,25,0.00
2013-3-5,46,29,18,18,10,6,61,46,30,30.27,30.09,21,6,21,0.00
2013-3-6,46,30,15,23,16,6,72,56,38,30.21,29.89,23,6,23,0.00
2013-3-7,62,38,24,33,24,18,80,60,34,29.95,29.80,11,3,11,0.00
2013-3-8,57,41,26,42,30,19,83,65,39,29.92,29.53,7,1,7,0.00
2013-3-9,50,38,30,48,35,25,98,91,81,29.83,29.39,15,6,15,0.00
2013-3-10,32,25,18,30,16,10,98,68,47,30.07,29.83,24,10,24,0.00
2013-3-11,61,35,16,34,19,9,76,56,33,30.01,29.68,13,5,13,0.00
2013-3-12,48,35,24,22,15,5,62,44,27,30.24,29.92,22,6,22,0.00
2013-3-13,74,44,19,38,21,7,63,43,24,30.21,29.92,13,2,13,0.00
2013-3-14,85,56,37,42,30,22,65,42,18,30.07,29.92,14,2,14,0.00
2013-3-15,87,57,36,43,30,24,67,41,14,29.92,29.65,15,4,15,0.00
2013-3-16,48,38,31,30,23,17,70,54,39,30.03,29.83,12,5,12,0.00
2013-3-17,38,33,28,36,26,16,98,77,52,29.98,29.50,20,6,20,0.04
2013-3-18,34,26,25,34,26,24,98,98,97,29.95,29.65,26,6,26,0.00
2013-3-19,26,23,0,25,25,25,98,86,98,30.18,29.92,23,5,23,0.00
2013-3-20,47,10,0,25,23,13,40,7,28,30.36,29.92,18,4,18,0.00
2013-3-21,56,39,28,26,18,12,76,44,29,29.95,29.65,17,7,17,0.00
2013-3-22,32,32,32,26,26,25,77,77,76,29.86,29.71,14,5,14,0.00
2013-3-23,32,32,32,26,26,26,77,77,77,29.98,29.80,17,6,17,0.00
2013-3-24,32,12,0,26,26,26,77,28,77,30.12,29.95,20,6,20,0.05
2013-3-25,0,0,0,26,26,26,0,0,100,30.27,30.09,20,6,20,0.00
2013-3-26,0,0,0,26,26,26,0,0,100,30.27,29.92,21,3,21,0.00
2013-3-27,0,0,0,26,26,26,0,0,100,30.09,29.95,6,2,8,0.00
2013-3-28,74,32,0,33,27,0,44,15,22,30.09,27.41,16,4,16,0.00
2013-3-29,76,53,34,43,32,22,67,46,28,30.03,29.77,21,5,21,0.04
2013-3-30,0,0,0,43,43,43,0,0,100,29.80,29.80,3,2,3,0.37
2013-3-31,0,0,0,43,43,43,0,0,100,29.80,29.80,2,2,3,0.37
2013-4-1,50,43,0,26,24,0,69,47,38,30.18,30.03,11,4,11,0.00
2013-4-2,66,51,37,33,26,21,55,38,26,30.12,30.07,14,3,14,0.00
2013-4-3,64,46,30,34,25,22,71,49,25,30.15,30.03,24,5,24,0.00
2013-4-4,43,39,29,32,28,22,75,64,58,30.09,29.92,12,3,12,0.00
2013-4-5,75,44,37,32,29,25,75,61,21,29.98,29.53,22,5,22,0.00
2013-4-6,61,55,0,40,36,29,65,48,36,29.74,29.56,26,6,26,0.00
2013-4-7,75,59,49,61,42,38,98,55,34,29.74,29.42,13,2,13,0.08
2013-4-8,80,56,33,49,41,33,98,66,22,29.56,29.42,22,5,22,0.25
2013-4-9,33,22,18,33,21,17,98,97,93,30.09,29.47,28,2,28,0.46
2013-4-10,28,23,19,27,22,18,98,97,93,30.07,29.86,17,3,17,0.00
2013-4-11,36,28,0,33,27,20,98,95,89,29.86,29.65,16,6,16,0.04
2013-4-12,53,37,27,41,32,26,98,82,47,29.83,29.77,15,4,15,0.08
2013-4-13,68,47,25,45,36,23,92,68,40,29.86,29.24,17,5,24,0.00
2013-4-14,59,49,37,47,32,16,91,56,28,29.68,29.18,31,10,31,0.00
2013-4-15,51,37,29,26,19,14,62,49,36,30.03,29.62,17,5,17,0.00
2013-4-16,42,36,0,31,27,19,79,69,50,30.09,29.92,15,4,15,0.13
2013-4-17,38,31,27,31,28,24,96,89,73,30.01,29.86,20,8,20,0.00
2013-4-18,36,29,25,25,20,14,94,72,47,30.01,29.89,26,10,26,0.04
2013-4-19,56,39,23,31,24,16,77,56,37,29.98,29.89,18,6,18,0.00
2013-4-20,62,44,30,34,27,23,75,53,33,29.98,29.86,18,5,18,0.00
2013-4-21,78,51,36,46,36,28,89,61,28,29.92,29.83,15,4,15,0.00
2013-4-22,44,35,29,41,32,23,98,90,80,30.21,29.80,18,7,18,0.04
2013-4-23,47,33,24,29,19,10,81,60,34,30.21,30.09,14,5,14,0.00
2013-4-24,64,39,18,32,18,9,70,47,24,30.12,30.03,23,5,23,0.00
2013-4-25,80,52,25,35,26,16,76,42,20,30.12,29.74,24,4,24,0.00
2013-4-26,81,60,37,40,24,15,56,29,10,30.09,29.86,17,4,17,0.00
2013-4-27,90,64,36,43,28,12,62,32,10,30.09,29.80,15,3,15,0.00
2013-4-28,94,66,41,43,32,18,68,34,7,29.80,29.65,17,5,17,0.00
2013-4-29,89,69,50,44,36,28,50,31,18,29.77,29.33,19,5,19,0.00
2013-4-30,71,58,45,42,32,20,66,40,23,29.92,29.33,19,5,19,0.00
2013-5-1,44,34,32,38,33,32,98,96,71,30.39,29.86,16,6,17,0.45
2013-5-2,61,43,32,50,32,23,98,71,32,30.51,30.30,12,4,12,0.13
2013-5-3,64,46,26,41,25,14,80,48,24,30.30,30.03,15,3,15,0.00
2013-5-4,62,44,26,27,18,12,55,37,24,30.18,30.03,16,5,16,0.00
2013-5-5,72,49,26,33,21,14,59,36,15,30.18,30.03,12,2,12,0.00
2013-5-6,80,59,37,45,31,22,65,39,20,30.03,29.86,17,3,17,0.00
2013-5-7,74,60,50,53,44,31,79,56,36,29.92,29.71,20,6,20,0.00
2013-5-8,78,62,48,72,51,40,98,72,32,29.83,29.68,17,4,17,0.41
2013-5-9,67,57,48,53,45,40,88,67,46,29.95,29.80,13,5,13,0.00
2013-5-10,81,59,0,60,49,37,88,72,35,30.01,29.89,17,2,17,0.21
2013-5-11,72,60,0,56,46,26,86,67,24,30.27,29.92,15,1,15,0.21
2013-5-12,83,61,42,47,36,26,60,41,23,30.15,29.89,10,3,10,0.00
2013-5-13,99,73,49,55,44,37,75,42,16,29.92,29.71,11,2,11,0.00
2013-5-14,101,78,55,53,42,31,56,32,10,29.71,29.56,14,4,14,0.00
2013-5-15,85,70,61,40,37,34,39,30,20,29.80,29.65,19,6,19,0.00
2013-5-16,87,63,56,65,48,34,85,59,36,29.77,29.56,20,3,20,0.05
2013-5-17,90,71,50,63,54,47,89,59,28,29.71,29.56,22,4,22,0.00
2013-5-18,84,71,59,68,61,49,83,70,54,29.65,29.44,33,6,33,0.00
2013-5-19,71,59,54,67,55,51,98,87,67,29.59,29.44,20,4,20,0.24
2013-5-20,69,57,52,60,51,43,98,80,45,29.62,29.47,26,8,26,0.17
2013-5-21,65,54,48,48,42,39,89,66,44,29.77,29.59,26,8,26,0.00
2013-5-22,76,58,48,50,45,40,80,63,38,29.92,29.71,14,5,14,0.00
2013-5-23,71,59,45,49,45,40,83,62,43,30.03,29.92,17,5,17,0.00
2013-5-24,79,64,56,61,54,45,89,71,47,29.95,29.71,24,8,24,0.04
2013-5-25,91,73,59,64,58,48,89,61,37,29.83,29.56,15,5,15,0.04
2013-5-26,89,76,64,67,61,47,86,63,40,29.66,29.50,14,4,14,0.00
2013-5-27,75,66,0,70,62,53,98,87,72,29.81,29.60,16,4,16,0.33
2013-5-28,83,67,0,75,59,51,98,79,46,29.81,29.55,17,3,17,0.00
2013-5-29,83,62,55,67,56,51,98,82,58,29.69,29.31,22,4,22,0.25
2013-5-30,82,65,50,71,52,37,98,70,25,29.66,29.49,22,4,22,0.04
2013-5-31,76,62,48,52,42,38,75,50,30,29.84,29.66,27,8,27,0.00
2013-6-1,70,57,48,46,43,36,76,60,40,30.17,29.84,26,8,26,0.00
2013-6-2,79,60,38,51,42,32,82,54,32,30.20,29.90,13,3,13,0.00
2013-6-3,88,69,54,63,50,42,98,54,31,29.93,29.60,22,8,22,0.13
2013-6-4,80,67,58,65,54,46,98,68,35,30.05,29.72,11,4,11,0.00
2013-6-5,75,59,49,61,47,40,88,68,41,30.17,30.02,13,4,13,0.00
2013-6-6,81,62,42,54,45,37,86,58,35,30.11,29.96,8,2,8,0.00
2013-6-7,88,68,45,56,47,39,82,52,29,30.08,29.75,16,2,16,0.00
2013-6-8,78,64,56,69,57,50,93,80,55,29.87,29.66,13,4,13,0.12
2013-6-9,86,68,51,61,50,46,92,59,29,29.96,29.84,14,4,14,0.00
2013-6-10,101,76,50,64,54,45,81,50,25,29.87,29.69,17,3,17,0.00
2013-6-11,97,82,65,65,60,54,69,50,29,29.75,29.58,19,4,19,0.00
2013-6-12,91,74,59,64,57,48,80,57,31,30.08,29.64,15,4,15,0.00
2013-6-13,85,69,51,57,52,46,83,58,33,30.14,29.87,14,4,14,0.00
2013-6-14,98,80,68,67,58,48,69,48,29,29.93,29.72,28,5,28,0.00
2013-6-15,89,75,63,62,59,54,81,58,40,29.96,29.81,15,4,15,0.00
2013-6-16,94,72,61,67,58,52,84,63,28,30.02,29.84,22,4,22,0.00
2013-6-17,89,71,52,64,54,47,88,58,32,30.08,29.96,11,2,11,0.00
2013-6-18,90,73,58,76,62,51,98,71,36,30.08,29.87,23,4,23,0.09
2013-6-19,91,76,60,66,58,54,82,56,33,29.93,29.72,26,6,26,0.00
2013-6-20,96,79,67,70,63,58,84,61,37,29.78,29.69,14,4,14,0.00
2013-6-21,103,82,0,66,59,49,98,48,28,29.78,29.64,27,6,27,0.37
2013-6-22,87,73,62,69,64,58,98,76,52,29.90,29.66,30,5,30,0.08
2013-6-23,87,71,0,75,64,57,98,79,47,29.93,29.75,15,3,15,0.17
2013-6-24,92,75,60,81,68,58,98,81,52,29.96,29.66,17,3,17,0.09
2013-6-25,95,78,66,75,62,51,89,63,27,29.81,29.66,15,3,15,0.00
2013-6-26,101,80,59,69,61,54,86,58,27,29.96,29.81,10,1,10,0.00
2013-6-27,90,78,66,71,63,58,84,62,37,30.08,29.90,15,3,15,0.00
2013-6-28,92,78,64,66,58,51,85,54,29,30.14,30.02,11,2,11,0.00
2013-6-29,88,73,59,63,53,45,76,51,32,30.08,30.02,11,2,11,0.00
2013-6-30,88,71,54,61,51,46,78,53,30,30.17,30.08,10,2,10,0.00
2013-7-1,86,68,52,59,49,42,82,53,30,30.25,30.14,8,2,8,0.00
2013-7-2,89,69,49,58,47,42,81,50,25,30.28,30.08,10,2,10,0.00
2013-7-3,96,73,54,57,47,39,72,45,18,30.08,29.90,10,2,10,0.00
2013-7-4,98,78,62,55,48,41,57,37,18,29.96,29.81,14,4,14,0.00
2013-7-5,97,80,64,59,52,45,58,39,25,29.87,29.69,14,4,14,0.00
2013-7-6,103,84,69,64,58,53,62,43,26,29.78,29.69,12,3,12,0.00
2013-7-7,99,81,66,69,64,58,87,59,34,29.96,29.78,16,3,16,0.00
2013-7-8,99,80,65,82,68,63,98,70,33,30.02,29.84,10,2,10,0.04
2013-7-9,104,83,66,72,65,61,88,59,28,30.08,29.87,11,3,11,0.00
2013-7-10,89,75,64,69,62,56,79,64,44,30.17,29.96,11,3,11,0.00
2013-7-11,97,80,65,70,64,60,88,61,34,30.02,29.84,15,4,15,0.00
2013-7-12,106,86,70,69,63,56,74,51,25,29.90,29.75,16,4,16,0.00
2013-7-13,108,88,70,71,64,58,72,47,24,29.93,29.78,11,3,11,0.00
2013-7-14,91,78,71,72,66,60,82,68,52,30.11,29.81,17,3,17,0.00
2013-7-15,91,77,64,72,59,47,90,58,29,30.17,30.05,16,4,16,0.00
2013-7-16,88,74,64,63,58,52,81,60,39,30.23,30.11,20,6,20,0.00
2013-7-17,94,78,62,65,59,54,83,55,33,30.28,30.08,23,6,23,0.00
2013-7-18,99,83,67,67,60,56,79,49,28,30.14,29.87,17,6,17,0.00
2013-7-19,99,82,68,68,56,49,71,45,22,30.05,29.93,18,4,18,0.00
2013-7-20,96,76,60,66,60,52,98,59,34,29.99,29.81,14,3,14,0.33
2013-7-21,97,77,59,81,64,55,98,71,32,29.96,29.75,14,4,14,0.08
2013-7-22,96,79,64,68,62,57,90,59,36,29.93,29.78,11,3,11,0.12
2013-7-23,97,76,0,66,59,53,78,57,27,30.02,29.81,24,4,24,0.00
2013-7-24,98,76,60,68,60,51,88,62,30,30.14,29.96,10,2,10,0.00
2013-7-25,90,73,64,71,61,51,98,69,44,30.08,29.96,20,4,20,0.00
2013-7-26,82,68,0,75,60,52,98,77,43,30.25,30.05,11,3,11,0.00
2013-7-27,69,61,56,57,53,51,87,74,64,30.14,30.02,13,3,13,0.00
2013-7-28,68,61,57,57,54,52,93,80,65,30.08,29.96,10,3,10,0.00
2013-7-29,77,65,58,71,62,57,97,91,71,30.05,29.93,7,2,7,0.00
2013-7-30,92,71,59,73,64,56,98,80,42,30.14,29.99,30,3,30,0.00
2013-7-31,92,74,60,81,68,60,98,81,54,30.20,30.08,9,2,10,0.00
2013-8-1,92,76,64,72,66,61,98,73,43,30.14,26.84,17,3,17,0.41
2013-8-2,92,73,61,80,67,60,98,83,57,30.23,29.99,13,3,13,0.00
2013-8-3,80,70,66,67,64,61,93,82,61,30.31,30.14,14,4,16,0.00
2013-8-4,85,71,62,71,65,60,93,81,62,30.22,30.05,13,4,13,0.00
2013-8-5,95,77,0,75,68,57,93,74,46,30.05,29.93,20,3,20,0.00
2013-8-6,96,77,62,73,66,59,92,71,45,30.05,29.90,13,3,13,0.00
2013-8-7,88,74,60,67,61,57,90,66,44,30.14,30.05,9,2,10,0.00
2013-8-8,90,73,62,66,58,50,81,63,38,30.16,30.05,14,2,14,0.00
2013-8-9,92,71,54,66,58,51,98,67,36,30.25,30.10,10,2,10,0.29
2013-8-10,91,73,58,80,61,53,98,72,33,30.28,30.14,17,4,17,0.00
2013-8-11,96,75,64,72,63,57,86,69,42,30.16,30.05,10,3,10,0.00
2013-8-12,94,74,60,71,63,58,94,72,41,30.19,30.08,8,2,8,0.00
2013-8-13,87,71,63,67,61,57,91,73,43,30.22,30.10,12,3,12,0.00
2013-8-14,90,72,63,70,62,59,89,73,44,30.19,30.05,12,3,12,0.00
2013-8-15,91,71,58,81,64,57,98,81,42,30.16,30.02,13,2,13,0.09
2013-8-16,87,72,62,69,63,59,92,76,47,30.19,30.10,10,3,10,0.00
2013-8-17,80,70,63,67,64,60,92,81,64,30.16,30.05,13,4,13,0.00
2013-8-18,86,72,62,69,63,60,93,76,51,30.14,30.02,14,4,14,0.00
2013-8-19,69,68,68,62,62,62,82,80,79,30.08,30.05,13,6,13,0.00
2013-8-27,120,92,0,65,55,0,68,31,11,30.08,29.99,13,2,13,0.00
2013-8-28,116,82,62,64,55,48,73,45,13,30.14,30.05,11,2,11,0.00
2013-8-29,118,83,61,69,60,46,87,53,12,30.10,30.02,10,1,10,0.00
2013-8-30,117,83,66,71,63,53,98,59,14,30.16,29.99,24,3,24,0.41
2013-8-31,115,79,0,80,67,58,98,75,21,30.16,29.93,10,2,10,0.37
2013-9-1,102,74,57,69,55,41,98,58,18,30.22,30.02,12,2,12,0.00
2013-9-2,105,73,52,61,53,46,88,57,17,30.22,23.76,13,2,13,0.00
2013-9-3,110,80,61,60,54,48,74,45,16,30.16,30.02,19,4,19,0.00
2013-9-4,117,81,0,62,54,45,67,43,13,30.19,30.05,13,4,13,0.00
2013-9-5,109,84,68,62,54,44,67,40,14,30.22,30.08,17,3,17,0.00
2013-9-6,123,87,63,58,50,33,64,35,8,30.16,29.93,12,3,12,0.00
2013-9-7,117,84,61,66,54,39,70,41,13,30.10,29.99,10,2,10,0.00
2013-9-8,116,84,68,73,56,33,89,51,8,30.05,29.87,14,4,14,0.00
2013-9-9,114,83,66,66,54,43,95,42,14,30.02,29.87,13,4,13,0.21
2013-9-10,105,75,63,66,59,52,96,64,25,30.19,29.96,13,3,13,0.00
2013-9-11,82,68,61,67,62,56,98,81,53,30.25,30.16,8,2,8,0.29
2013-9-12,96,71,59,76,60,50,98,74,28,30.34,30.25,12,3,12,0.00
2013-9-13,74,63,57,60,51,47,82,68,47,30.28,30.10,13,4,13,0.00
2013-9-14,91,69,60,64,56,50,81,65,41,30.10,29.90,19,6,19,0.00
2013-9-15,70,63,58,64,58,52,98,85,60,30.34,29.96,12,4,12,0.37
2013-9-16,61,57,55,56,53,51,93,85,78,30.37,30.19,10,4,10,0.00
2013-9-17,99,69,55,70,60,53,96,76,31,30.22,29.84,14,5,14,0.00
2013-9-18,109,76,58,70,61,53,95,66,24,29.87,29.72,24,3,24,0.00
2013-9-19,80,61,47,62,52,40,98,76,36,30.22,29.81,14,3,19,0.09
2013-9-20,93,59,39,54,44,37,93,63,24,30.28,30.05,8,1,8,0.00
2013-9-21,102,68,44,57,46,40,88,54,17,30.10,29.84,13,3,13,0.00
2013-9-22,97,71,54,55,49,45,74,49,21,29.84,29.69,28,6,28,0.00
2013-9-23,79,62,57,60,48,45,77,61,42,29.90,29.66,21,6,21,0.00
2013-9-24,98,64,47,54,44,31,94,57,17,30.14,29.90,14,4,14,0.00
2013-9-25,92,66,46,54,47,39,84,56,24,30.02,29.63,26,6,26,0.00
2013-9-26,101,72,55,58,49,41,70,47,18,29.81,29.63,19,4,20,0.00
2013-9-27,70,55,47,54,48,44,98,80,47,29.99,29.72,17,3,17,0.54
2013-9-28,83,54,39,57,41,31,98,70,22,30.14,29.96,16,4,16,0.00
2013-9-29,98,62,38,52,39,31,87,51,16,30.16,29.87,17,4,23,0.00
2013-9-30,102,69,45,54,42,32,77,44,13,29.90,29.81,14,3,14,0.00
2013-10-1,94,64,44,46,38,29,72,44,17,30.16,29.84,13,2,13,0.00
2013-10-2,100,66,46,62,46,35,78,52,26,30.05,29.90,10,2,10,0.00
2013-10-3,58,54,51,55,48,38,98,81,48,29.93,29.87,12,3,12,0.00
2013-10-5,44,41,38,30,27,25,70,57,48,30.22,30.14,26,11,26,0.04
2013-10-6,78,50,32,37,29,21,77,49,21,30.25,30.16,20,6,20,0.00
2013-10-7,100,59,32,48,35,25,84,48,11,30.25,29.99,20,2,20,0.00
2013-10-8,95,63,41,46,36,28,72,40,15,30.02,29.84,14,4,14,0.00
2013-10-9,93,61,43,52,39,31,73,47,18,29.96,29.90,13,3,13,0.00
2013-10-10,90,62,43,57,45,36,98,59,24,29.96,29.63,27,4,27,0.41
2013-10-11,66,54,42,55,42,30,98,66,37,30.10,29.57,26,8,26,0.00
2013-10-12,72,48,34,44,34,29,85,60,33,30.31,30.10,9,2,9,0.00
2013-10-13,42,39,37,34,32,30,80,77,73,30.37,30.31,5,1,5,0.00
2013-10-14,70,52,43,66,50,35,98,93,73,30.10,29.66,19,8,19,0.67
2013-10-15,49,41,32,36,30,26,77,65,49,30.34,30.08,24,8,24,0.00
2013-10-16,67,39,26,42,29,24,91,70,37,30.34,30.05,9,2,9,0.00
2013-10-17,61,40,28,36,27,21,86,65,36,30.25,30.08,16,4,16,0.00
2013-10-18,58,39,29,36,27,21,79,63,39,30.28,30.19,13,2,13,0.00
2013-10-19,77,47,28,37,28,22,80,52,22,30.19,29.96,14,3,14,0.00
2013-10-20,67,46,31,40,31,24,74,56,35,30.22,29.93,14,2,14,0.00
2013-10-21,70,46,30,50,35,24,96,68,32,30.22,30.08,17,3,17,0.00
2013-10-22,69,51,40,42,35,27,75,57,34,30.19,30.08,15,3,15,0.00
2013-10-23,73,49,33,46,34,28,85,58,27,30.34,30.14,17,2,17,0.00
2013-10-24,50,44,39,36,33,30,77,66,58,30.49,30.34,11,3,11,0.00
2013-10-25,78,46,30,44,33,27,88,64,30,30.43,30.10,18,3,18,0.00
2013-10-26,80,47,34,40,30,21,82,57,22,30.40,30.19,10,2,10,0.00
2013-10-27,90,51,31,45,31,24,77,54,15,30.22,29.90,10,2,10,0.00
2013-10-30,65,43,30,52,39,29,98,89,54,30.05,29.87,0,0,0,0.00
2013-10-31,66,43,27,48,30,23,98,69,25,29.93,29.81,0,0,0,0.00
2013-11-1,62,46,34,36,27,16,77,50,26,30.34,29.90,0,0,0,0.00
2013-11-2,73,43,23,36,22,15,74,47,22,30.40,30.08,17,3,17,0.00
2013-11-3,75,45,35,43,28,23,69,52,32,30.08,29.72,20,3,20,0.00
2013-11-4,59,44,36,34,29,22,77,57,35,30.22,29.84,13,3,13,0.00
2013-11-5,37,34,30,34,30,24,98,89,60,30.31,30.16,12,3,12,0.16
2013-11-6,58,32,21,50,30,20,98,95,73,30.49,30.28,10,2,10,0.17
2013-11-7,67,39,23,50,34,22,98,82,38,30.58,30.25,10,2,10,0.00
2013-11-8,72,46,31,41,31,24,88,60,24,30.25,29.87,28,4,28,0.00
2013-11-9,73,46,31,38,28,21,79,53,26,30.46,30.16,7,2,7,0.00
2013-11-10,69,41,24,46,31,19,85,69,41,30.46,30.22,15,2,15,0.00
2013-11-11,36,30,21,32,23,11,91,75,59,30.87,30.22,14,4,14,0.00
2013-11-12,58,30,12,33,19,6,82,64,36,30.93,30.52,12,3,12,0.00
2013-11-13,79,42,21,42,28,17,86,61,26,30.55,30.08,10,1,10,0.00
2013-11-14,74,46,32,42,30,21,73,57,28,30.19,30.02,10,2,10,0.00
2013-11-15,70,45,32,40,31,24,79,61,31,30.02,29.60,21,4,21,0.00
2013-11-16,67,44,31,34,26,20,82,55,26,29.63,29.54,17,3,17,0.00
2013-11-17,57,41,22,30,19,7,57,42,25,30.31,29.60,33,8,33,0.04
2013-11-18,66,37,17,28,16,8,71,46,23,30.37,30.22,10,2,10,0.00
2013-11-19,62,41,24,33,20,10,58,44,33,30.22,29.93,17,4,17,0.00
2013-11-20,78,46,31,37,26,16,70,48,22,30.22,29.87,16,3,16,0.00
2013-11-21,31,18,12,20,9,4,79,66,57,30.84,30.22,18,8,18,0.00
2013-11-22,44,19,7,23,6,-3,65,57,39,30.87,30.75,10,3,10,0.00
2013-11-23,48,22,11,23,8,2,67,56,38,30.99,30.73,10,3,10,0.00
2013-11-24,43,27,14,25,16,4,79,63,49,30.75,30.25,20,5,20,0.00
2013-11-25,52,31,17,29,16,9,83,59,28,30.49,30.25,14,3,14,0.00
2013-11-26,43,26,11,20,11,1,65,54,37,30.64,30.49,13,3,13,0.00
2013-11-27,69,31,10,34,15,1,71,54,27,30.58,30.16,10,1,10,0.00
2013-11-28,48,28,19,27,17,12,75,64,41,30.55,30.34,10,2,10,0.00
2013-11-29,38,30,17,26,20,12,81,68,60,30.55,30.37,11,6,11,0.00
2013-11-30,36,36,36,25,25,25,62,62,62,30.37,30.37,7,7,7,0.00
2013-12-1,36,36,36,25,25,25,62,62,62,30.37,30.37,7,7,7,0.00
2013-12-2,36,36,36,25,25,25,62,62,62,30.37,30.37,7,7,7,0.00
2013-12-3,36,36,36,25,25,25,62,62,62,30.37,30.37,7,7,7,0.00
2013-12-4,36,16,6,25,2,-12,64,52,42,30.40,30.02,23,10,23,0.00
2013-12-5,28,7,-2,5,-12,-20,46,41,36,30.55,30.37,12,4,12,0.00
2013-12-6,24,4,-5,2,-17,-25,45,37,35,30.73,30.55,9,3,9,0.00
2013-12-7,10,3,-7,-12,-18,-27,36,36,36,30.73,30.37,16,5,16,0.00
2013-12-8,16,8,-5,4,-8,-16,60,48,36,30.37,30.10,12,3,12,0.00
2013-12-9,34,11,-7,12,-4,-18,58,51,36,30.43,30.22,12,3,12,0.00
2013-12-10,49,26,8,23,10,-5,69,50,34,30.49,30.16,14,4,14,0.00
2013-12-11,41,20,5,18,8,-3,71,60,39,30.67,30.46,11,3,14,0.00
2013-12-12,66,26,8,29,10,-1,73,54,26,30.49,30.16,9,2,9,0.00
2013-12-13,58,26,12,30,12,3,71,57,31,30.28,29.96,12,2,12,0.00
2013-12-14,54,29,14,28,15,8,79,59,32,30.37,30.25,11,3,12,0.00
2013-12-15,63,41,28,29,20,13,55,44,27,30.25,30.10,19,4,19,0.00
2013-12-16,66,37,22,33,18,8,67,47,25,30.34,30.14,13,2,13,0.00
2013-12-17,60,35,18,31,17,8,70,49,28,30.49,30.14,11,2,11,0.00
2013-12-18,76,40,23,33,17,9,63,42,16,30.14,29.84,12,2,12,0.00
2013-12-19,32,24,10,22,14,2,76,66,52,30.16,29.87,16,6,16,0.00
2013-12-20,34,16,10,14,4,-3,68,58,43,30.16,29.96,17,4,17,0.00
2013-12-21,50,21,0,25,6,-6,65,52,37,30.08,29.84,11,2,11,0.00
2013-12-22,45,21,8,22,8,-2,72,59,39,30.49,30.08,12,3,12,0.00
2013-12-23,23,12,2,8,1,-6,67,60,46,30.61,30.37,8,3,12,0.00
2013-12-24,43,24,6,32,15,-5,85,68,51,30.40,30.14,15,4,15,0.05
2013-12-25,50,28,16,27,17,8,87,68,37,30.49,30.37,14,3,14,0.00
2013-12-26,62,33,16,30,16,9,73,53,27,30.40,30.28,13,3,13,0.00
2013-12-27,68,34,16,35,18,9,74,55,26,30.40,30.19,10,1,10,0.00
2013-12-28,58,29,13,31,15,0,75,58,30,30.40,29.96,24,5,24,0.00
2013-12-29,39,16,3,16,0,-9,56,50,38,30.52,30.16,17,4,18,0.00
2013-12-30,52,30,17,26,13,4,69,51,32,30.31,30.10,23,4,23,0.00
2013-12-31,62,31,15,29,16,8,74,56,27,30.31,30.08,15,2,15,0.00
2014-1-1,29,22,15,16,11,5,69,61,54,30.46,30.10,11,4,11,0.00
2014-1-2,52,26,12,29,16,6,79,66,37,30.46,30.28,10,2,10,0.00